Time;durP1;ratioP1;P1;durP2;ratioP2;P2;SDS_P1;SDS_P2;PMS_P1;PMS_P2;Temp;Humidity;BMP_temperature;BMP_pressure;BME280_temperature;BME280_humidity;BME280_pressure;Samples;Min_cycle;Max_cycle;Signal;HPM_P1;HPM_P2
2024/01/23 00:00:44;;;;;;;22.23;3.08;;;;;;;;;;5051751;28;20392;-66
2024/01/23 00:03:09;;;;;;;17.33;2.75;;;;;;;;;;5050400;28;20049;-66
2024/01/23 00:05:34;;;;;;;15.68;2.20;;;;;;;;;;5052091;28;20021;-66
2024/01/23 00:08:00;;;;;;;13.43;1.88;;;;;;;;;;5051935;28;20043;-66
2024/01/23 00:10:25;;;;;;;11.88;1.90;;;;;;;;;;5051723;28;20037;-66
2024/01/23 00:12:50;;;;;;;12.25;1.90;;;;;;;;;;5051788;28;20529;-66
2024/01/23 00:15:18;;;;;;;10.77;2.40;;;;;;;;;;5051877;28;20420;-66
2024/01/23 00:17:44;;;;;;;8.40;1.67;;;;;;;;;;5049582;28;20037;-67
2024/01/23 00:20:10;;;;;;;18.65;2.13;;;;;;;;;;5051453;28;20036;-66
2024/01/23 00:22:35;;;;;;;13.75;1.83;;;;;;;;;;5051562;28;20045;-66
2024/01/23 00:25:01;;;;;;;15.15;3.08;;;;;;;;;;5048817;28;20185;-66
2024/01/23 00:27:26;;;;;;;15.13;2.35;;;;;;;;;;5083849;28;20106;-66
2024/01/23 00:29:51;;;;;;;17.10;2.72;;;;;;;;;;5052120;28;20029;-67
2024/01/23 00:32:17;;;;;;;11.07;2.22;;;;;;;;;;5051365;28;20033;-66
2024/01/23 00:34:42;;;;;;;24.35;2.55;;;;;;;;;;5051302;28;20108;-66
2024/01/23 00:37:08;;;;;;;21.15;4.20;;;;;;;;;;5050554;28;20033;-66
2024/01/23 00:39:37;;;;;;;13.52;1.90;;;;;;;;;;5051278;28;20044;-67
2024/01/23 00:42:04;;;;;;;14.68;2.45;;;;;;;;;;5049478;28;20036;-66
2024/01/23 00:44:29;;;;;;;17.05;3.03;;;;;;;;;;5048351;28;20049;-66
2024/01/23 00:46:56;;;;;;;11.25;2.78;;;;;;;;;;5051113;28;20385;-65
2024/01/23 00:49:21;;;;;;;23.77;2.70;;;;;;;;;;5050398;28;20064;-67
2024/01/23 00:51:46;;;;;;;17.75;3.35;;;;;;;;;;5050992;28;20061;-66
2024/01/23 00:54:12;;;;;;;13.65;2.05;;;;;;;;;;5050983;28;20099;-66
2024/01/23 00:56:41;;;;;;;23.98;2.58;;;;;;;;;;5049736;28;20060;-66
2024/01/23 00:59:07;;;;;;;13.23;2.25;;;;;;;;;;5050982;28;20134;-66
2024/01/23 01:01:32;;;;;;;20.42;2.67;;;;;;;;;;5083031;28;20445;-66
2024/01/23 01:03:58;;;;;;;15.43;2.53;;;;;;;;;;5050888;28;20044;-66
2024/01/23 01:06:23;;;;;;;11.77;1.98;;;;;;;;;;5049617;28;20033;-65
2024/01/23 01:08:48;;;;;;;14.55;2.40;;;;;;;;;;5050784;28;20053;-66
2024/01/23 01:11:14;;;;;;;12.90;2.17;;;;;;;;;;5050386;28;20044;-65
2024/01/23 01:13:39;;;;;;;16.42;3.17;;;;;;;;;;5050054;28;20098;-66
2024/01/23 01:16:04;;;;;;;25.60;1.95;;;;;;;;;;5050471;28;20049;-66
2024/01/23 01:18:30;;;;;;;16.67;2.45;;;;;;;;;;5050450;28;20074;-66
2024/01/23 01:20:55;;;;;;;14.15;2.42;;;;;;;;;;5050508;28;20477;-67
2024/01/23 01:23:21;;;;;;;23.38;2.88;;;;;;;;;;5050335;28;20055;-66
2024/01/23 01:25:46;;;;;;;18.55;2.53;;;;;;;;;;5050394;28;20373;-65
2024/01/23 01:28:14;;;;;;;12.55;2.55;;;;;;;;;;5050362;28;20606;-66
2024/01/23 01:30:39;;;;;;;14.10;2.33;;;;;;;;;;5050137;28;20041;-66
2024/01/23 01:33:05;;;;;;;7.80;2.20;;;;;;;;;;5050431;28;20033;-67
2024/01/23 01:35:30;;;;;;;10.95;2.40;;;;;;;;;;5050066;28;20048;-65
2024/01/23 01:37:56;;;;;;;25.58;3.22;;;;;;;;;;5048430;28;20144;-66
2024/01/23 01:40:21;;;;;;;19.88;2.70;;;;;;;;;;5050250;28;20029;-67
2024/01/23 01:42:46;;;;;;;16.25;2.08;;;;;;;;;;5050110;28;20040;-67
2024/01/23 01:45:12;;;;;;;14.20;1.67;;;;;;;;;;5050254;28;20072;-66
2024/01/23 01:47:41;;;;;;;13.73;2.67;;;;;;;;;;5050298;28;20021;-66
2024/01/23 01:50:06;;;;;;;22.08;2.63;;;;;;;;;;5049768;28;20044;-67
2024/01/23 01:52:32;;;;;;;22.85;2.08;;;;;;;;;;5049044;28;20499;-65
2024/01/23 01:54:59;;;;;;;14.50;2.60;;;;;;;;;;5050077;28;20043;-65
2024/01/23 01:57:27;;;;;;;16.95;2.30;;;;;;;;;;5049641;28;20075;-66
2024/01/23 01:59:53;;;;;;;23.88;3.10;;;;;;;;;;5048897;28;20090;-65
2024/01/23 02:02:19;;;;;;;8.98;2.67;;;;;;;;;;5049360;28;20020;-66
2024/01/23 02:04:45;;;;;;;26.05;3.53;;;;;;;;;;5049830;28;20037;-66
2024/01/23 02:07:11;;;;;;;23.52;2.85;;;;;;;;;;5050064;28;20048;-67
2024/01/23 02:09:37;;;;;;;23.75;2.80;;;;;;;;;;5048862;28;20033;-67
2024/01/23 02:12:05;;;;;;;18.17;2.60;;;;;;;;;;5049639;28;20040;-66
2024/01/23 02:14:30;;;;;;;17.27;2.63;;;;;;;;;;5050105;28;20130;-65
2024/01/23 02:16:55;;;;;;;19.25;2.20;;;;;;;;;;5049676;28;20526;-66
2024/01/23 02:19:21;;;;;;;25.33;3.00;;;;;;;;;;5050105;28;20071;-66
2024/01/23 02:21:46;;;;;;;20.27;3.38;;;;;;;;;;5048881;28;20477;-66
2024/01/23 02:24:11;;;;;;;20.42;3.00;;;;;;;;;;5047946;28;20052;-67
2024/01/23 02:26:37;;;;;;;9.52;1.90;;;;;;;;;;5049976;28;20033;-66
2024/01/23 02:29:02;;;;;;;16.52;1.92;;;;;;;;;;5048392;28;20128;-66
2024/01/23 02:31:28;;;;;;;19.02;2.70;;;;;;;;;;5049730;28;20125;-66
2024/01/23 02:33:53;;;;;;;12.30;2.10;;;;;;;;;;5046668;28;20048;-66
2024/01/23 02:36:18;;;;;;;12.70;1.98;;;;;;;;;;5049601;28;20045;-66
2024/01/23 02:38:44;;;;;;;14.38;2.60;;;;;;;;;;5049911;28;20040;-66
2024/01/23 02:41:10;;;;;;;20.67;2.40;;;;;;;;;;5050372;28;20094;-66
2024/01/23 02:43:36;;;;;;;21.17;2.83;;;;;;;;;;5053314;28;20048;-66
2024/01/23 02:46:01;;;;;;;23.77;2.53;;;;;;;;;;5052018;28;20449;-66
2024/01/23 02:48:27;;;;;;;26.38;2.65;;;;;;;;;;5053573;28;20037;-66
2024/01/23 02:50:52;;;;;;;16.00;1.85;;;;;;;;;;5052895;28;20078;-66
2024/01/23 02:53:17;;;;;;;22.95;2.13;;;;;;;;;;5053394;28;20090;-66
2024/01/23 02:55:43;;;;;;;18.88;2.28;;;;;;;;;;5053007;28;20051;-66
2024/01/23 02:58:09;;;;;;;11.55;2.30;;;;;;;;;;5052557;28;20140;-66
2024/01/23 03:00:35;;;;;;;10.80;2.67;;;;;;;;;;5052810;28;20485;-66
2024/01/23 03:03:03;;;;;;;15.10;2.15;;;;;;;;;;5052791;28;20043;-66
2024/01/23 03:05:28;;;;;;;24.35;2.75;;;;;;;;;;5084916;28;20069;-65
2024/01/23 03:07:54;;;;;;;17.67;3.88;;;;;;;;;;5053039;28;20049;-66
2024/01/23 03:10:19;;;;;;;9.43;1.70;;;;;;;;;;5053166;28;20037;-66
2024/01/23 03:12:46;;;;;;;13.13;2.80;;;;;;;;;;5052787;28;20276;-66
2024/01/23 03:15:11;;;;;;;27.95;2.75;;;;;;;;;;5052904;28;20046;-66
2024/01/23 03:17:37;;;;;;;20.20;3.00;;;;;;;;;;5052985;28;20044;-66
2024/01/23 03:20:03;;;;;;;18.48;2.47;;;;;;;;;;5052596;28;20075;-66
2024/01/23 03:22:28;;;;;;;15.38;2.65;;;;;;;;;;5052708;28;20124;-66
2024/01/23 03:24:54;;;;;;;19.65;2.10;;;;;;;;;;5052099;28;20163;-66
2024/01/23 03:27:19;;;;;;;16.08;2.75;;;;;;;;;;5052680;28;20098;-66
2024/01/23 03:29:45;;;;;;;14.00;2.42;;;;;;;;;;5055839;28;20033;-65
2024/01/23 03:32:11;;;;;;;8.38;2.78;;;;;;;;;;5052802;28;20028;-66
2024/01/23 03:34:37;;;;;;;14.30;1.88;;;;;;;;;;5052644;28;20059;-66
2024/01/23 03:37:03;;;;;;;18.30;2.78;;;;;;;;;;5052281;28;20082;-66
2024/01/23 03:39:29;;;;;;;21.15;1.80;;;;;;;;;;5052429;28;20033;-66
2024/01/23 03:41:55;;;;;;;19.00;2.50;;;;;;;;;;5050762;28;20392;-66
2024/01/23 03:44:21;;;;;;;26.23;2.72;;;;;;;;;;5052101;28;20143;-66
2024/01/23 03:46:47;;;;;;;15.65;2.08;;;;;;;;;;5052530;28;20510;-66
2024/01/23 03:49:12;;;;;;;18.40;2.05;;;;;;;;;;5052350;28;20088;-66
2024/01/23 03:51:37;;;;;;;18.15;2.42;;;;;;;;;;5051878;28;20024;-66
2024/01/23 03:54:03;;;;;;;22.23;2.78;;;;;;;;;;5051971;28;20504;-66
2024/01/23 03:56:28;;;;;;;10.32;2.90;;;;;;;;;;5052016;28;20049;-66
2024/01/23 03:58:53;;;;;;;19.67;2.22;;;;;;;;;;5051976;28;20037;-66
2024/01/23 04:01:19;;;;;;;17.65;2.55;;;;;;;;;;5050785;28;20148;-66
2024/01/23 04:03:44;;;;;;;23.98;3.10;;;;;;;;;;5051697;28;20080;-66
2024/01/23 04:06:09;;;;;;;21.20;3.17;;;;;;;;;;5050527;28;20037;-66
2024/01/23 04:08:35;;;;;;;20.00;2.85;;;;;;;;;;5051693;28;20037;-66
2024/01/23 04:11:01;;;;;;;19.35;2.40;;;;;;;;;;5052006;28;20041;-66
2024/01/23 04:13:26;;;;;;;17.90;2.47;;;;;;;;;;5051556;28;20032;-65
2024/01/23 04:15:51;;;;;;;18.20;2.83;;;;;;;;;;5051831;28;20037;-66
2024/01/23 04:18:17;;;;;;;18.05;2.97;;;;;;;;;;5051511;28;20056;-66
2024/01/23 04:20:42;;;;;;;31.40;3.63;;;;;;;;;;5051758;28;20116;-67
2024/01/23 04:23:07;;;;;;;18.27;2.33;;;;;;;;;;5051516;28;20041;-67
2024/01/23 04:25:33;;;;;;;14.27;2.53;;;;;;;;;;5051463;28;20072;-66
2024/01/23 04:27:58;;;;;;;28.73;3.05;;;;;;;;;;5051052;28;20021;-66
2024/01/23 04:30:25;;;;;;;31.90;4.20;;;;;;;;;;5051184;28;20041;-66
2024/01/23 04:32:50;;;;;;;16.10;2.42;;;;;;;;;;5051440;28;20037;-67
2024/01/23 04:35:16;;;;;;;22.10;2.90;;;;;;;;;;5051401;28;20039;-66
2024/01/23 04:37:41;;;;;;;23.77;2.80;;;;;;;;;;5051224;28;20120;-66
2024/01/23 04:40:07;;;;;;;18.48;3.20;;;;;;;;;;5051211;28;20072;-66
2024/01/23 04:42:33;;;;;;;12.82;3.20;;;;;;;;;;5050110;28;20016;-66
2024/01/23 04:44:59;;;;;;;16.65;3.00;;;;;;;;;;5051054;28;20039;-66
2024/01/23 04:47:25;;;;;;;24.52;2.95;;;;;;;;;;5051084;28;20123;-66
2024/01/23 04:49:51;;;;;;;37.33;3.33;;;;;;;;;;5051163;28;20063;-66
2024/01/23 04:52:16;;;;;;;16.77;3.42;;;;;;;;;;5050783;28;20045;-66
2024/01/23 04:54:42;;;;;;;13.02;2.17;;;;;;;;;;5050906;28;20094;-66
2024/01/23 04:57:08;;;;;;;21.05;2.95;;;;;;;;;;5050706;28;20488;-67
2024/01/23 04:59:33;;;;;;;16.38;3.13;;;;;;;;;;5050651;28;20048;-67
2024/01/23 05:01:59;;;;;;;11.75;1.88;;;;;;;;;;5050845;28;20040;-66
2024/01/23 05:04:24;;;;;;;21.65;2.50;;;;;;;;;;5050082;28;20025;-66
2024/01/23 05:06:49;;;;;;;24.23;2.90;;;;;;;;;;5050772;28;20045;-66
2024/01/23 05:09:15;;;;;;;22.13;2.65;;;;;;;;;;5047816;28;20041;-67
2024/01/23 05:11:40;;;;;;;28.20;3.67;;;;;;;;;;5049672;28;20033;-66
2024/01/23 05:14:05;;;;;;;35.42;3.80;;;;;;;;;;5050393;28;20049;-66
2024/01/23 05:16:31;;;;;;;22.25;3.65;;;;;;;;;;5049317;28;20032;-66
2024/01/23 05:18:57;;;;;;;21.02;2.75;;;;;;;;;;5050657;28;20484;-66
2024/01/23 05:21:23;;;;;;;17.50;2.92;;;;;;;;;;5050649;28;20411;-67
2024/01/23 05:23:48;;;;;;;25.33;3.20;;;;;;;;;;5050011;28;20043;-66
2024/01/23 05:26:13;;;;;;;17.80;3.05;;;;;;;;;;5050511;28;20104;-66
2024/01/23 05:28:39;;;;;;;31.98;3.47;;;;;;;;;;5050604;28;20052;-66
2024/01/23 05:31:04;;;;;;;16.15;3.42;;;;;;;;;;5050014;28;20056;-66
2024/01/23 05:33:29;;;;;;;24.45;3.80;;;;;;;;;;5050520;28;20036;-67
2024/01/23 05:35:55;;;;;;;23.25;3.05;;;;;;;;;;5050348;28;20032;-67
2024/01/23 05:38:20;;;;;;;30.92;3.72;;;;;;;;;;5049866;28;20044;-67
2024/01/23 05:40:45;;;;;;;29.55;3.05;;;;;;;;;;5050054;28;20074;-67
2024/01/23 05:43:10;;;;;;;24.83;3.42;;;;;;;;;;5050374;28;20048;-67
2024/01/23 05:45:36;;;;;;;27.02;3.70;;;;;;;;;;5050019;28;20045;-66
2024/01/23 05:48:01;;;;;;;28.90;2.92;;;;;;;;;;5049985;28;20025;-66
2024/01/23 05:50:27;;;;;;;18.52;3.60;;;;;;;;;;5050284;28;20032;-66
2024/01/23 05:52:53;;;;;;;18.80;3.03;;;;;;;;;;5049822;28;20075;-66
2024/01/23 05:55:18;;;;;;;28.65;3.80;;;;;;;;;;5050177;28;20068;-66
2024/01/23 05:57:44;;;;;;;18.33;2.95;;;;;;;;;;5046831;28;20072;-66
2024/01/23 06:00:13;;;;;;;27.65;3.30;;;;;;;;;;5048459;28;20048;-66
2024/01/23 06:02:38;;;;;;;20.92;3.88;;;;;;;;;;5050244;28;20036;-66
2024/01/23 06:05:04;;;;;;;30.02;3.28;;;;;;;;;;5050014;28;20040;-66
2024/01/23 06:07:29;;;;;;;19.70;2.50;;;;;;;;;;5050028;28;20423;-67
2024/01/23 06:09:55;;;;;;;24.73;3.33;;;;;;;;;;5048618;28;20033;-67
2024/01/23 06:12:20;;;;;;;22.35;3.40;;;;;;;;;;5048839;28;20126;-67
2024/01/23 06:14:46;;;;;;;27.02;3.97;;;;;;;;;;5049880;28;20492;-67
2024/01/23 06:17:11;;;;;;;18.58;3.13;;;;;;;;;;5052005;28;20128;-67
2024/01/23 06:19:36;;;;;;;18.48;2.42;;;;;;;;;;5053948;28;20052;-67
2024/01/23 06:22:02;;;;;;;25.27;4.18;;;;;;;;;;5053544;28;20052;-66
2024/01/23 06:24:27;;;;;;;27.60;2.90;;;;;;;;;;5053724;28;20029;-67
2024/01/23 06:26:53;;;;;;;25.50;2.92;;;;;;;;;;5053926;28;20040;-67
2024/01/23 06:29:18;;;;;;;22.13;3.90;;;;;;;;;;5086086;28;20099;-66
2024/01/23 06:31:44;;;;;;;11.10;1.85;;;;;;;;;;5053499;28;20036;-67
2024/01/23 06:34:09;;;;;;;16.00;3.13;;;;;;;;;;5050513;28;20040;-66
2024/01/23 06:36:36;;;;;;;28.05;3.08;;;;;;;;;;5053744;28;20047;-66
2024/01/23 06:39:01;;;;;;;25.42;3.83;;;;;;;;;;5085548;28;20033;-67
2024/01/23 06:41:26;;;;;;;33.63;4.20;;;;;;;;;;5053648;28;20086;-68
2024/01/23 06:43:52;;;;;;;34.42;4.70;;;;;;;;;;5053614;28;20040;-66
2024/01/23 06:46:17;;;;;;;30.33;4.40;;;;;;;;;;5053148;28;20476;-66
2024/01/23 06:48:42;;;;;;;27.33;4.97;;;;;;;;;;5085814;28;20068;-67
2024/01/23 06:51:08;;;;;;;30.80;6.22;;;;;;;;;;5053082;28;20060;-66
2024/01/23 06:53:34;;;;;;;21.33;6.00;;;;;;;;;;5052610;28;20120;-65
2024/01/23 06:55:59;;;;;;;28.05;5.07;;;;;;;;;;5051885;28;20493;-67
2024/01/23 06:58:24;;;;;;;31.05;3.47;;;;;;;;;;5052154;28;20040;-67
2024/01/23 07:00:50;;;;;;;21.95;3.63;;;;;;;;;;5052987;28;20025;-67
2024/01/23 07:03:15;;;;;;;27.95;3.55;;;;;;;;;;5053373;28;20041;-67
2024/01/23 07:05:40;;;;;;;33.50;2.72;;;;;;;;;;5053154;28;20033;-68
2024/01/23 07:08:06;;;;;;;13.85;3.58;;;;;;;;;;5052493;28;20145;-66
2024/01/23 07:10:31;;;;;;;18.98;3.58;;;;;;;;;;5052837;28;20112;-67
2024/01/23 07:12:57;;;;;;;30.45;2.95;;;;;;;;;;5085487;28;20064;-67
2024/01/23 07:15:22;;;;;;;27.88;3.35;;;;;;;;;;5052861;28;20037;-65
2024/01/23 07:17:47;;;;;;;27.70;3.53;;;;;;;;;;5052691;28;20045;-67
2024/01/23 07:20:13;;;;;;;19.83;3.20;;;;;;;;;;5052990;28;20128;-67
2024/01/23 07:22:38;;;;;;;34.10;3.63;;;;;;;;;;5052714;28;20110;-66
2024/01/23 07:25:04;;;;;;;26.73;3.03;;;;;;;;;;5051691;28;20045;-67
2024/01/23 07:27:30;;;;;;;25.70;2.90;;;;;;;;;;5052256;28;20044;-66
2024/01/23 07:29:55;;;;;;;27.58;3.35;;;;;;;;;;5052348;28;20033;-66
2024/01/23 07:32:21;;;;;;;23.30;3.75;;;;;;;;;;5052535;28;20041;-67
2024/01/23 07:34:46;;;;;;;25.60;3.33;;;;;;;;;;5051081;28;20124;-67
2024/01/23 07:37:11;;;;;;;26.60;3.33;;;;;;;;;;5051376;28;20599;-66
2024/01/23 07:39:37;;;;;;;18.98;2.70;;;;;;;;;;5051378;28;20041;-66
2024/01/23 07:42:03;;;;;;;24.52;3.00;;;;;;;;;;5052506;28;20178;-67
2024/01/23 07:44:28;;;;;;;24.33;3.88;;;;;;;;;;5084562;28;20091;-67
2024/01/23 07:46:54;;;;;;;24.90;3.03;;;;;;;;;;5051922;28;20041;-67
2024/01/23 07:49:19;;;;;;;38.75;3.60;;;;;;;;;;5052193;28;20127;-67
2024/01/23 07:51:48;;;;;;;17.73;3.45;;;;;;;;;;5052439;28;20033;-67
2024/01/23 07:54:13;;;;;;;30.90;2.97;;;;;;;;;;5051745;28;20083;-66
2024/01/23 07:56:39;;;;;;;23.17;3.28;;;;;;;;;;5051917;28;20057;-67
2024/01/23 07:59:05;;;;;;;25.90;2.92;;;;;;;;;;5052150;28;20063;-67
2024/01/23 08:01:30;;;;;;;29.15;3.13;;;;;;;;;;5052045;28;20036;-66
2024/01/23 08:03:57;;;;;;;32.00;3.58;;;;;;;;;;5051819;28;20040;-67
2024/01/23 08:06:22;;;;;;;29.30;3.17;;;;;;;;;;5052068;28;20033;-67
2024/01/23 08:08:48;;;;;;;24.63;3.17;;;;;;;;;;5050758;28;20037;-67
2024/01/23 08:11:13;;;;;;;18.70;2.55;;;;;;;;;;5052037;28;20427;-66
2024/01/23 08:13:38;;;;;;;24.25;2.63;;;;;;;;;;5048981;28;20536;-67
2024/01/23 08:16:08;;;;;;;17.15;2.03;;;;;;;;;;5051766;28;20466;-66
2024/01/23 08:18:33;;;;;;;19.63;2.72;;;;;;;;;;5051272;28;20392;-66
2024/01/23 08:20:58;;;;;;;19.55;3.35;;;;;;;;;;5051442;28;20035;-67
2024/01/23 08:23:23;;;;;;;18.00;2.15;;;;;;;;;;5051736;28;20043;-67
2024/01/23 08:25:49;;;;;;;24.88;2.75;;;;;;;;;;5050992;28;20037;-68
2024/01/23 08:28:14;;;;;;;16.38;2.60;;;;;;;;;;5053769;28;20024;-66
2024/01/23 08:30:39;;;;;;;20.00;3.60;;;;;;;;;;5051667;28;20086;-68
2024/01/23 08:33:05;;;;;;;33.58;3.80;;;;;;;;;;5051180;28;20045;-67
2024/01/23 08:35:30;;;;;;;25.02;3.17;;;;;;;;;;5051500;28;20036;-67
2024/01/23 08:37:56;;;;;;;17.30;2.97;;;;;;;;;;5051172;28;20053;-67
2024/01/23 08:40:21;;;;;;;20.52;2.45;;;;;;;;;;5049956;28;20079;-66
2024/01/23 08:42:47;;;;;;;26.52;2.58;;;;;;;;;;5051255;28;20043;-68
2024/01/23 08:45:12;;;;;;;21.00;3.08;;;;;;;;;;5048217;28;20128;-66
2024/01/23 08:47:38;;;;;;;32.53;2.90;;;;;;;;;;5050989;28;20083;-66
2024/01/23 08:50:04;;;;;;;18.50;3.15;;;;;;;;;;5051161;28;20040;-66
2024/01/23 08:52:29;;;;;;;24.77;2.85;;;;;;;;;;5048537;28;20079;-67
2024/01/23 08:54:54;;;;;;;19.75;2.45;;;;;;;;;;5050738;28;20064;-68
2024/01/23 08:57:22;;;;;;;12.23;2.10;;;;;;;;;;5049792;28;20049;-67
2024/01/23 08:59:48;;;;;;;8.23;2.67;;;;;;;;;;5050993;28;20047;-68
2024/01/23 09:02:14;;;;;;;15.70;2.13;;;;;;;;;;5050766;28;20116;-66
2024/01/23 09:04:39;;;;;;;9.50;2.05;;;;;;;;;;5050954;28;20037;-67
2024/01/23 09:07:05;;;;;;;13.90;2.90;;;;;;;;;;5050857;28;20037;-68
2024/01/23 09:09:30;;;;;;;11.02;1.85;;;;;;;;;;5050902;28;20460;-67
2024/01/23 09:11:55;;;;;;;9.27;1.98;;;;;;;;;;5050476;28;20039;-67
2024/01/23 09:14:21;;;;;;;18.95;2.13;;;;;;;;;;5050831;28;20503;-68
2024/01/23 09:16:47;;;;;;;14.90;2.25;;;;;;;;;;5050635;28;20125;-67
2024/01/23 09:19:14;;;;;;;22.15;3.15;;;;;;;;;;5082596;28;20179;-67
2024/01/23 09:21:39;;;;;;;16.42;3.03;;;;;;;;;;5050640;28;20037;-66
2024/01/23 09:24:05;;;;;;;23.90;2.55;;;;;;;;;;5050677;28;20040;-67
2024/01/23 09:26:31;;;;;;;15.00;2.30;;;;;;;;;;5050151;28;20024;-68
2024/01/23 09:28:56;;;;;;;19.83;2.22;;;;;;;;;;5082856;28;20175;-67
2024/01/23 09:31:22;;;;;;;12.23;2.35;;;;;;;;;;5050503;28;20061;-67
2024/01/23 09:33:48;;;;;;;18.48;2.58;;;;;;;;;;5082333;28;20033;-68
2024/01/23 09:36:14;;;;;;;13.38;2.65;;;;;;;;;;5050453;28;20041;-67
2024/01/23 09:38:39;;;;;;;14.30;1.77;;;;;;;;;;5049158;28;20033;-67
2024/01/23 09:41:11;;;;;;;14.63;1.98;;;;;;;;;;5049929;28;20033;-68
2024/01/23 09:43:38;;;;;;;15.02;2.35;;;;;;;;;;5081991;28;20028;-67
2024/01/23 09:46:04;;;;;;;23.10;1.90;;;;;;;;;;5049160;28;20037;-68
2024/01/23 09:48:30;;;;;;;13.35;1.52;;;;;;;;;;5048632;28;20477;-68
2024/01/23 09:50:57;;;;;;;7.25;1.85;;;;;;;;;;5049490;28;20102;-67
2024/01/23 09:53:25;;;;;;;11.25;1.80;;;;;;;;;;5048738;28;20037;-66
2024/01/23 09:55:51;;;;;;;12.90;1.95;;;;;;;;;;5048483;28;20029;-68
2024/01/23 09:58:16;;;;;;;9.05;1.42;;;;;;;;;;5048765;28;20475;-67
2024/01/23 10:00:41;;;;;;;8.13;1.50;;;;;;;;;;5082481;28;20048;-67
2024/01/23 10:03:10;;;;;;;14.15;2.03;;;;;;;;;;5049802;28;20467;-68
2024/01/23 10:05:35;;;;;;;11.60;2.00;;;;;;;;;;5050196;28;20044;-67
2024/01/23 10:08:01;;;;;;;20.10;2.38;;;;;;;;;;5049664;28;20033;-68
2024/01/23 10:10:27;;;;;;;7.57;1.60;;;;;;;;;;5049252;28;20082;-67
2024/01/23 10:12:53;;;;;;;10.43;3.53;;;;;;;;;;5049767;28;20037;-69
2024/01/23 10:15:21;;;;;;;13.40;4.80;;;;;;;;;;5049981;28;20037;-68
2024/01/23 10:17:47;;;;;;;15.40;2.83;;;;;;;;;;5050147;28;20033;-69
2024/01/23 10:20:12;;;;;;;9.70;2.30;;;;;;;;;;5048980;28;20094;-67
2024/01/23 10:22:38;;;;;;;12.35;2.97;;;;;;;;;;5049596;28;20075;-68
2024/01/23 10:25:09;;;;;;;4.25;1.40;;;;;;;;;;5048508;28;20044;-68
2024/01/23 10:27:34;;;;;;;17.95;2.15;;;;;;;;;;5048982;28;20477;-67
2024/01/23 10:29:59;;;;;;;17.48;2.25;;;;;;;;;;5053011;28;20166;-67
2024/01/23 10:32:26;;;;;;;7.68;1.83;;;;;;;;;;5049882;28;20087;-67
2024/01/23 10:34:54;;;;;;;5.63;1.00;;;;;;;;;;5049206;28;20064;-67
2024/01/23 10:37:23;;;;;;;13.32;2.13;;;;;;;;;;5049509;28;20037;-67
2024/01/23 10:39:49;;;;;;;15.23;1.60;;;;;;;;;;5049666;28;20033;-67
2024/01/23 10:42:15;;;;;;;11.45;1.85;;;;;;;;;;5047406;28;20504;-68
2024/01/23 10:44:42;;;;;;;7.95;1.30;;;;;;;;;;5049358;28;20400;-67
2024/01/23 10:47:07;;;;;;;8.93;1.83;;;;;;;;;;5079618;28;20627;-68
2024/01/23 10:49:33;;;;;;;22.33;2.53;;;;;;;;;;5049056;28;20085;-66
2024/01/23 10:52:03;;;;;;;10.77;1.35;;;;;;;;;;5077962;28;20052;-68
2024/01/23 10:54:31;;;;;;;12.25;1.67;;;;;;;;;;5042696;28;20074;-66
2024/01/23 10:56:58;;;;;;;8.10;1.60;;;;;;;;;;5048003;28;20049;-67
2024/01/23 10:59:27;;;;;;;11.32;2.08;;;;;;;;;;5047127;28;20063;-68
2024/01/23 11:01:59;;;;;;;9.38;0.95;;;;;;;;;;5078943;28;20480;-68
2024/01/23 11:04:24;;;;;;;7.82;1.20;;;;;;;;;;5022710;28;20037;-67
2024/01/23 11:06:54;;;;;;;4.03;0.82;;;;;;;;;;5050705;28;20032;-67
2024/01/23 11:09:22;;;;;;;3.38;0.75;;;;;;;;;;5052303;28;20056;-68
2024/01/23 11:11:51;;;;;;;9.52;1.98;;;;;;;;;;5038000;28;20092;-68
2024/01/23 11:14:21;;;;;;;5.10;1.50;;;;;;;;;;5051238;28;20037;-67
2024/01/23 11:17:06;;;;;;;4.00;1.10;;;;;;;;;;5073203;28;20043;-67
2024/01/23 11:19:39;;;;;;;7.88;1.50;;;;;;;;;;5050150;28;20051;-67
2024/01/23 11:22:04;;;;;;;8.15;1.00;;;;;;;;;;5051809;28;20110;-67
2024/01/23 11:24:45;;;;;;;3.20;0.65;;;;;;;;;;5051601;28;20066;-67
2024/01/23 11:27:20;;;;;;;3.33;1.45;;;;;;;;;;5051307;28;20048;-67
2024/01/23 11:29:47;;;;;;;7.75;1.30;;;;;;;;;;5047861;28;20060;-67
2024/01/23 11:32:23;;;;;;;5.25;0.98;;;;;;;;;;5051434;28;20051;-67
2024/01/23 11:34:58;;;;;;;4.63;1.02;;;;;;;;;;5050530;28;20499;-67
2024/01/23 11:37:39;;;;;;;2.42;0.80;;;;;;;;;;5048271;28;20485;-67
2024/01/23 11:40:06;;;;;;;6.93;1.38;;;;;;;;;;5040893;28;20033;-67
2024/01/23 11:42:41;;;;;;;9.65;1.33;;;;;;;;;;5050966;28;20103;-66
2024/01/23 11:45:21;;;;;;;5.18;1.13;;;;;;;;;;5083294;28;20044;-67
2024/01/23 11:47:49;;;;;;;3.53;0.77;;;;;;;;;;5046830;28;20041;-68
2024/01/23 11:50:15;;;;;;;4.40;0.90;;;;;;;;;;5079622;28;20070;-67
2024/01/23 11:52:44;;;;;;;2.08;0.60;;;;;;;;;;5051347;28;20465;-68
2024/01/23 11:55:09;;;;;;;3.53;0.70;;;;;;;;;;5049899;28;20477;-69
2024/01/23 11:57:35;;;;;;;3.60;0.70;;;;;;;;;;5049490;28;20056;-69
2024/01/23 12:00:01;;;;;;;1.15;0.55;;;;;;;;;;5050829;28;20040;-68
2024/01/23 12:02:27;;;;;;;1.50;0.60;;;;;;;;;;5050810;28;20623;-69
2024/01/23 12:04:52;;;;;;;4.35;0.68;;;;;;;;;;5048372;28;20082;-68
2024/01/23 12:07:18;;;;;;;5.03;0.77;;;;;;;;;;5051129;28;20048;-67
2024/01/23 12:09:43;;;;;;;3.85;0.90;;;;;;;;;;5049741;28;20133;-68
2024/01/23 12:12:09;;;;;;;4.20;0.60;;;;;;;;;;5050546;28;20082;-67
2024/01/23 12:14:34;;;;;;;2.95;0.50;;;;;;;;;;5049398;28;20116;-68
2024/01/23 12:17:07;;;;;;;0.73;0.50;;;;;;;;;;5050618;28;20040;-68
2024/01/23 12:19:46;;;;;;;4.85;0.60;;;;;;;;;;5050706;28;20112;-68
2024/01/23 12:22:12;;;;;;;1.25;0.47;;;;;;;;;;5050609;28;20120;-67
2024/01/23 12:24:37;;;;;;;1.05;0.50;;;;;;;;;;5050821;28;20108;-69
2024/01/23 12:27:04;;;;;;;3.33;0.80;;;;;;;;;;5050123;28;20044;-67
2024/01/23 12:29:30;;;;;;;2.95;0.68;;;;;;;;;;5082120;28;20033;-68
2024/01/23 12:31:59;;;;;;;1.65;0.75;;;;;;;;;;5050636;28;20121;-69
2024/01/23 12:34:24;;;;;;;1.05;0.60;;;;;;;;;;5041106;28;20044;-67
2024/01/23 12:36:50;;;;;;;1.30;0.60;;;;;;;;;;5050087;28;20067;-68
2024/01/23 12:39:18;;;;;;;2.10;0.70;;;;;;;;;;5049141;28;20392;-68
2024/01/23 12:41:44;;;;;;;1.92;0.70;;;;;;;;;;5049163;28;20519;-68
2024/01/23 12:44:10;;;;;;;2.67;0.65;;;;;;;;;;5049882;28;20048;-68
2024/01/23 12:46:36;;;;;;;0.93;0.32;;;;;;;;;;5050015;28;20037;-69
2024/01/23 12:49:07;;;;;;;0.90;0.50;;;;;;;;;;5049390;28;20048;-68
2024/01/23 12:51:35;;;;;;;0.65;0.50;;;;;;;;;;5050005;28;20072;-67
2024/01/23 12:54:00;;;;;;;0.85;0.60;;;;;;;;;;5042210;28;20029;-68
2024/01/23 12:56:26;;;;;;;0.57;0.40;;;;;;;;;;5046484;28;20041;-68
2024/01/23 12:58:51;;;;;;;0.77;0.47;;;;;;;;;;5047308;28;20076;-68
2024/01/23 13:01:18;;;;;;;1.33;0.70;;;;;;;;;;5049778;28;20037;-68
2024/01/23 13:03:44;;;;;;;2.30;0.70;;;;;;;;;;5049451;28;20036;-68
2024/01/23 13:06:09;;;;;;;0.73;0.50;;;;;;;;;;5049300;28;20120;-67
2024/01/23 13:08:35;;;;;;;0.43;0.40;;;;;;;;;;5080573;28;20112;-68
2024/01/23 13:11:00;;;;;;;4.05;0.45;;;;;;;;;;5047908;28;20037;-68
2024/01/23 13:13:25;;;;;;;0.80;0.52;;;;;;;;;;5049347;28;20432;-69
2024/01/23 13:15:50;;;;;;;2.05;0.70;;;;;;;;;;5050222;28;20369;-68
2024/01/23 13:18:16;;;;;;;1.60;0.70;;;;;;;;;;5047596;28;20543;-68
2024/01/23 13:20:41;;;;;;;2.10;0.90;;;;;;;;;;5049251;28;20516;-69
2024/01/23 13:23:07;;;;;;;2.25;0.70;;;;;;;;;;5048840;28;20037;-68
2024/01/23 13:25:33;;;;;;;2.28;1.02;;;;;;;;;;5074172;28;20551;-67
2024/01/23 13:27:59;;;;;;;2.80;1.25;;;;;;;;;;5048827;28;20121;-68
2024/01/23 13:30:29;;;;;;;2.17;0.90;;;;;;;;;;5050060;28;20112;-68
2024/01/23 13:32:55;;;;;;;0.73;0.50;;;;;;;;;;5049714;28;20047;-69
2024/01/23 13:35:21;;;;;;;0.55;0.40;;;;;;;;;;5049504;28;20028;-68
2024/01/23 13:37:47;;;;;;;1.35;0.70;;;;;;;;;;5047747;28;20043;-68
2024/01/23 13:40:13;;;;;;;0.77;0.50;;;;;;;;;;5048080;28;20040;-68
2024/01/23 13:42:42;;;;;;;1.35;0.50;;;;;;;;;;5047809;28;20043;-68
2024/01/23 13:45:09;;;;;;;1.52;0.60;;;;;;;;;;5078303;28;21192;-68
2024/01/23 13:47:35;;;;;;;2.50;0.70;;;;;;;;;;5044807;28;20037;-68
2024/01/23 13:50:01;;;;;;;3.60;0.77;;;;;;;;;;5073222;28;20489;-68
2024/01/23 13:52:26;;;;;;;5.03;0.90;;;;;;;;;;5045066;28;20036;-68
2024/01/23 13:54:52;;;;;;;4.18;0.70;;;;;;;;;;5047312;28;20065;-68
2024/01/23 13:57:17;;;;;;;3.60;0.75;;;;;;;;;;5048363;28;20064;-68
2024/01/23 13:59:42;;;;;;;3.78;0.75;;;;;;;;;;5048930;28;20033;-69
2024/01/23 14:02:08;;;;;;;2.20;0.63;;;;;;;;;;5048867;28;20036;-68
2024/01/23 14:04:34;;;;;;;1.95;0.65;;;;;;;;;;5049191;28;20060;-68
2024/01/23 14:07:01;;;;;;;8.70;1.50;;;;;;;;;;5049001;28;20126;-68
2024/01/23 14:09:30;;;;;;;1.58;0.70;;;;;;;;;;5049362;28;20129;-68
2024/01/23 14:11:56;;;;;;;3.20;0.70;;;;;;;;;;5049405;28;20025;-69
2024/01/23 14:14:21;;;;;;;4.47;1.38;;;;;;;;;;5048886;28;20029;-68
2024/01/23 14:16:47;;;;;;;2.78;0.82;;;;;;;;;;5049357;28;20575;-68
2024/01/23 14:19:13;;;;;;;3.28;0.80;;;;;;;;;;5049280;28;20504;-68
2024/01/23 14:21:39;;;;;;;1.02;0.60;;;;;;;;;;5049102;28;20082;-68
2024/01/23 14:24:05;;;;;;;4.60;0.68;;;;;;;;;;5045249;28;20120;-69
2024/01/23 14:26:30;;;;;;;4.05;0.70;;;;;;;;;;5049357;28;20100;-69